sensor_id;sensor_type;location;lat;lon;timestamp;P1;durP1;ratioP1;P2;durP2;ratioP2
21192;SDS011;10754;51.106;7.164;2023-02-28T00:01:11;2.00;;;1.53;;
21192;SDS011;10754;51.106;7.164;2023-02-28T00:03:38;1.80;;;1.50;;
21192;SDS011;10754;51.106;7.164;2023-02-28T00:06:06;1.97;;;1.40;;
21192;SDS011;10754;51.106;7.164;2023-02-28T00:08:34;4.13;;;1.63;;
21192;SDS011;10754;51.106;7.164;2023-02-28T00:11:01;2.20;;;1.53;;
21192;SDS011;10754;51.106;7.164;2023-02-28T00:13:27;2.53;;;1.70;;
21192;SDS011;10754;51.106;7.164;2023-02-28T00:16:00;2.03;;;1.53;;
21192;SDS011;10754;51.106;7.164;2023-02-28T00:18:30;2.50;;;1.43;;
21192;SDS011;10754;51.106;7.164;2023-02-28T00:20:56;2.47;;;1.73;;
21192;SDS011;10754;51.106;7.164;2023-02-28T00:23:22;2.40;;;1.30;;
21192;SDS011;10754;51.106;7.164;2023-02-28T00:25:47;2.07;;;1.83;;
21192;SDS011;10754;51.106;7.164;2023-02-28T00:28:13;1.77;;;1.60;;
21192;SDS011;10754;51.106;7.164;2023-02-28T00:30:38;1.90;;;1.37;;
21192;SDS011;10754;51.106;7.164;2023-02-28T00:33:04;3.63;;;1.47;;
21192;SDS011;10754;51.106;7.164;2023-02-28T00:35:29;1.93;;;1.40;;
21192;SDS011;10754;51.106;7.164;2023-02-28T00:37:55;2.43;;;1.60;;
21192;SDS011;10754;51.106;7.164;2023-02-28T00:40:20;1.50;;;1.40;;
21192;SDS011;10754;51.106;7.164;2023-02-28T00:42:46;1.50;;;1.40;;
21192;SDS011;10754;51.106;7.164;2023-02-28T00:45:11;1.93;;;1.50;;
21192;SDS011;10754;51.106;7.164;2023-02-28T00:47:37;3.17;;;2.00;;
21192;SDS011;10754;51.106;7.164;2023-02-28T00:50:03;2.40;;;1.30;;
21192;SDS011;10754;51.106;7.164;2023-02-28T00:52:29;2.20;;;1.40;;
21192;SDS011;10754;51.106;7.164;2023-02-28T00:54:55;2.13;;;1.63;;
21192;SDS011;10754;51.106;7.164;2023-02-28T00:57:21;1.97;;;1.53;;
21192;SDS011;10754;51.106;7.164;2023-02-28T00:59:46;2.07;;;1.43;;
21192;SDS011;10754;51.106;7.164;2023-02-28T01:02:12;1.80;;;1.47;;
21192;SDS011;10754;51.106;7.164;2023-02-28T01:04:37;1.77;;;1.30;;
21192;SDS011;10754;51.106;7.164;2023-02-28T01:07:03;2.90;;;1.60;;
21192;SDS011;10754;51.106;7.164;2023-02-28T01:09:29;1.83;;;1.60;;
21192;SDS011;10754;51.106;7.164;2023-02-28T01:11:55;3.00;;;1.70;;
21192;SDS011;10754;51.106;7.164;2023-02-28T01:14:20;1.90;;;1.33;;
21192;SDS011;10754;51.106;7.164;2023-02-28T01:16:46;1.60;;;1.20;;
21192;SDS011;10754;51.106;7.164;2023-02-28T01:19:11;2.13;;;1.20;;
21192;SDS011;10754;51.106;7.164;2023-02-28T01:21:37;2.37;;;1.67;;
21192;SDS011;10754;51.106;7.164;2023-02-28T01:24:03;2.13;;;1.60;;
21192;SDS011;10754;51.106;7.164;2023-02-28T01:26:30;1.70;;;1.50;;
21192;SDS011;10754;51.106;7.164;2023-02-28T01:28:56;2.80;;;1.67;;
21192;SDS011;10754;51.106;7.164;2023-02-28T01:31:22;3.43;;;1.73;;
21192;SDS011;10754;51.106;7.164;2023-02-28T01:33:47;1.90;;;1.30;;
21192;SDS011;10754;51.106;7.164;2023-02-28T01:36:15;2.10;;;1.50;;
21192;SDS011;10754;51.106;7.164;2023-02-28T01:38:41;3.00;;;1.60;;
21192;SDS011;10754;51.106;7.164;2023-02-28T01:41:07;2.73;;;1.57;;
21192;SDS011;10754;51.106;7.164;2023-02-28T01:43:52;1.30;;;1.20;;
21192;SDS011;10754;51.106;7.164;2023-02-28T01:46:20;1.40;;;1.30;;
21192;SDS011;10754;51.106;7.164;2023-02-28T01:48:58;1.53;;;1.33;;
21192;SDS011;10754;51.106;7.164;2023-02-28T01:51:29;2.30;;;1.83;;
21192;SDS011;10754;51.106;7.164;2023-02-28T01:54:10;1.90;;;1.33;;
21192;SDS011;10754;51.106;7.164;2023-02-28T01:56:43;2.30;;;1.63;;
21192;SDS011;10754;51.106;7.164;2023-02-28T01:59:14;2.30;;;1.20;;
21192;SDS011;10754;51.106;7.164;2023-02-28T02:02:11;1.50;;;1.40;;
21192;SDS011;10754;51.106;7.164;2023-02-28T02:04:39;1.90;;;1.53;;
21192;SDS011;10754;51.106;7.164;2023-02-28T02:07:09;2.33;;;1.37;;
21192;SDS011;10754;51.106;7.164;2023-02-28T02:09:36;1.93;;;1.57;;
21192;SDS011;10754;51.106;7.164;2023-02-28T02:12:03;1.73;;;1.60;;
21192;SDS011;10754;51.106;7.164;2023-02-28T02:14:51;2.60;;;1.43;;
21192;SDS011;10754;51.106;7.164;2023-02-28T02:17:34;1.47;;;1.13;;
21192;SDS011;10754;51.106;7.164;2023-02-28T02:30:44;1.83;;;1.57;;
21192;SDS011;10754;51.106;7.164;2023-02-28T02:38:34;1.50;;;1.27;;
21192;SDS011;10754;51.106;7.164;2023-02-28T02:44:11;2.03;;;1.67;;
21192;SDS011;10754;51.106;7.164;2023-02-28T02:46:42;2.23;;;1.40;;
21192;SDS011;10754;51.106;7.164;2023-02-28T02:49:12;1.23;;;1.10;;
21192;SDS011;10754;51.106;7.164;2023-02-28T02:51:48;1.70;;;1.60;;
21192;SDS011;10754;51.106;7.164;2023-02-28T02:54:16;1.97;;;1.30;;
21192;SDS011;10754;51.106;7.164;2023-02-28T02:56:46;1.70;;;1.40;;
21192;SDS011;10754;51.106;7.164;2023-02-28T02:59:13;1.70;;;1.60;;
21192;SDS011;10754;51.106;7.164;2023-02-28T03:01:46;1.50;;;1.40;;
21192;SDS011;10754;51.106;7.164;2023-02-28T03:04:16;2.13;;;1.43;;
21192;SDS011;10754;51.106;7.164;2023-02-28T03:06:45;1.97;;;1.83;;
21192;SDS011;10754;51.106;7.164;2023-02-28T03:09:10;2.77;;;1.53;;
21192;SDS011;10754;51.106;7.164;2023-02-28T03:11:36;1.53;;;1.30;;
21192;SDS011;10754;51.106;7.164;2023-02-28T03:22:39;3.07;;;1.50;;
21192;SDS011;10754;51.106;7.164;2023-02-28T03:25:20;2.73;;;1.53;;
21192;SDS011;10754;51.106;7.164;2023-02-28T03:28:15;2.17;;;1.30;;
21192;SDS011;10754;51.106;7.164;2023-02-28T03:33:26;2.00;;;1.80;;
21192;SDS011;10754;51.106;7.164;2023-02-28T03:36:00;2.93;;;1.80;;
21192;SDS011;10754;51.106;7.164;2023-02-28T03:38:33;1.83;;;1.70;;
21192;SDS011;10754;51.106;7.164;2023-02-28T03:41:06;2.47;;;1.47;;
21192;SDS011;10754;51.106;7.164;2023-02-28T03:43:52;2.73;;;2.03;;
21192;SDS011;10754;51.106;7.164;2023-02-28T03:46:23;3.50;;;1.77;;
21192;SDS011;10754;51.106;7.164;2023-02-28T03:48:54;2.37;;;1.93;;
21192;SDS011;10754;51.106;7.164;2023-02-28T03:51:25;3.73;;;1.90;;
21192;SDS011;10754;51.106;7.164;2023-02-28T03:54:06;2.40;;;1.80;;
21192;SDS011;10754;51.106;7.164;2023-02-28T03:56:38;1.97;;;1.63;;
21192;SDS011;10754;51.106;7.164;2023-02-28T04:02:09;3.20;;;2.03;;
21192;SDS011;10754;51.106;7.164;2023-02-28T04:04:34;4.57;;;1.90;;
21192;SDS011;10754;51.106;7.164;2023-02-28T04:07:01;3.80;;;1.60;;
21192;SDS011;10754;51.106;7.164;2023-02-28T04:09:29;1.90;;;1.67;;
21192;SDS011;10754;51.106;7.164;2023-02-28T04:11:54;1.60;;;1.30;;
21192;SDS011;10754;51.106;7.164;2023-02-28T04:14:23;2.90;;;1.80;;
21192;SDS011;10754;51.106;7.164;2023-02-28T04:16:48;2.40;;;1.83;;
21192;SDS011;10754;51.106;7.164;2023-02-28T04:19:15;1.90;;;1.43;;
21192;SDS011;10754;51.106;7.164;2023-02-28T04:21:42;1.53;;;1.37;;
21192;SDS011;10754;51.106;7.164;2023-02-28T04:24:10;1.87;;;1.60;;
21192;SDS011;10754;51.106;7.164;2023-02-28T04:26:42;2.03;;;1.50;;
21192;SDS011;10754;51.106;7.164;2023-02-28T04:29:09;2.30;;;1.90;;
21192;SDS011;10754;51.106;7.164;2023-02-28T04:31:36;2.10;;;1.50;;
21192;SDS011;10754;51.106;7.164;2023-02-28T04:34:02;1.57;;;1.20;;
21192;SDS011;10754;51.106;7.164;2023-02-28T04:36:28;1.57;;;1.43;;
21192;SDS011;10754;51.106;7.164;2023-02-28T04:38:53;2.10;;;1.30;;
21192;SDS011;10754;51.106;7.164;2023-02-28T04:41:19;1.60;;;1.33;;
21192;SDS011;10754;51.106;7.164;2023-02-28T04:43:45;1.30;;;1.20;;
21192;SDS011;10754;51.106;7.164;2023-02-28T04:46:10;2.53;;;1.40;;
21192;SDS011;10754;51.106;7.164;2023-02-28T04:48:36;3.27;;;1.47;;
21192;SDS011;10754;51.106;7.164;2023-02-28T04:51:04;2.40;;;1.47;;
21192;SDS011;10754;51.106;7.164;2023-02-28T04:53:33;1.63;;;1.37;;
21192;SDS011;10754;51.106;7.164;2023-02-28T04:55:59;1.33;;;1.23;;
21192;SDS011;10754;51.106;7.164;2023-02-28T04:58:25;4.10;;;1.73;;
21192;SDS011;10754;51.106;7.164;2023-02-28T05:00:51;1.90;;;1.63;;
21192;SDS011;10754;51.106;7.164;2023-02-28T05:03:17;2.63;;;1.40;;
21192;SDS011;10754;51.106;7.164;2023-02-28T05:05:45;2.83;;;1.33;;
21192;SDS011;10754;51.106;7.164;2023-02-28T05:08:11;2.47;;;1.70;;
21192;SDS011;10754;51.106;7.164;2023-02-28T05:10:37;2.03;;;1.57;;
21192;SDS011;10754;51.106;7.164;2023-02-28T05:13:02;1.90;;;1.40;;
21192;SDS011;10754;51.106;7.164;2023-02-28T05:15:28;1.80;;;1.33;;
21192;SDS011;10754;51.106;7.164;2023-02-28T05:17:53;2.37;;;1.97;;
21192;SDS011;10754;51.106;7.164;2023-02-28T05:20:19;2.37;;;1.43;;
21192;SDS011;10754;51.106;7.164;2023-02-28T05:22:45;3.07;;;1.50;;
21192;SDS011;10754;51.106;7.164;2023-02-28T05:25:18;2.87;;;2.00;;
21192;SDS011;10754;51.106;7.164;2023-02-28T05:27:45;1.83;;;1.57;;
21192;SDS011;10754;51.106;7.164;2023-02-28T05:30:10;2.07;;;1.43;;
21192;SDS011;10754;51.106;7.164;2023-02-28T05:32:37;2.60;;;1.50;;
21192;SDS011;10754;51.106;7.164;2023-02-28T05:35:03;1.77;;;1.50;;
21192;SDS011;10754;51.106;7.164;2023-02-28T05:37:29;2.13;;;1.53;;
21192;SDS011;10754;51.106;7.164;2023-02-28T05:39:55;3.53;;;1.70;;
21192;SDS011;10754;51.106;7.164;2023-02-28T05:42:21;1.50;;;1.40;;
21192;SDS011;10754;51.106;7.164;2023-02-28T05:44:46;2.03;;;1.50;;
21192;SDS011;10754;51.106;7.164;2023-02-28T05:47:12;5.13;;;1.77;;
21192;SDS011;10754;51.106;7.164;2023-02-28T05:49:40;2.20;;;1.57;;
21192;SDS011;10754;51.106;7.164;2023-02-28T05:52:06;2.07;;;1.40;;
21192;SDS011;10754;51.106;7.164;2023-02-28T05:54:31;1.30;;;1.20;;
21192;SDS011;10754;51.106;7.164;2023-02-28T05:56:57;2.23;;;1.80;;
21192;SDS011;10754;51.106;7.164;2023-02-28T05:59:23;1.60;;;1.50;;
21192;SDS011;10754;51.106;7.164;2023-02-28T06:01:48;2.30;;;1.50;;
21192;SDS011;10754;51.106;7.164;2023-02-28T06:04:14;2.43;;;1.60;;
21192;SDS011;10754;51.106;7.164;2023-02-28T06:06:43;1.93;;;1.47;;
21192;SDS011;10754;51.106;7.164;2023-02-28T06:09:09;2.67;;;1.77;;
21192;SDS011;10754;51.106;7.164;2023-02-28T06:11:35;1.57;;;1.47;;
21192;SDS011;10754;51.106;7.164;2023-02-28T06:14:01;2.57;;;1.70;;
21192;SDS011;10754;51.106;7.164;2023-02-28T06:16:28;2.10;;;1.70;;
21192;SDS011;10754;51.106;7.164;2023-02-28T06:18:56;2.00;;;1.80;;
21192;SDS011;10754;51.106;7.164;2023-02-28T06:21:22;1.93;;;1.70;;
21192;SDS011;10754;51.106;7.164;2023-02-28T06:23:48;1.90;;;1.70;;
21192;SDS011;10754;51.106;7.164;2023-02-28T06:26:14;2.00;;;1.80;;
21192;SDS011;10754;51.106;7.164;2023-02-28T06:28:40;2.57;;;2.17;;
21192;SDS011;10754;51.106;7.164;2023-02-28T06:31:09;3.07;;;1.97;;
21192;SDS011;10754;51.106;7.164;2023-02-28T06:33:37;2.07;;;1.87;;
21192;SDS011;10754;51.106;7.164;2023-02-28T06:36:03;3.13;;;2.17;;
21192;SDS011;10754;51.106;7.164;2023-02-28T06:38:30;2.40;;;2.20;;
21192;SDS011;10754;51.106;7.164;2023-02-28T06:40:56;2.80;;;2.50;;
21192;SDS011;10754;51.106;7.164;2023-02-28T06:43:23;2.70;;;2.47;;
21192;SDS011;10754;51.106;7.164;2023-02-28T06:45:50;3.03;;;2.60;;
21192;SDS011;10754;51.106;7.164;2023-02-28T06:48:18;3.77;;;2.87;;
21192;SDS011;10754;51.106;7.164;2023-02-28T06:50:44;2.73;;;2.47;;
21192;SDS011;10754;51.106;7.164;2023-02-28T06:53:09;2.30;;;2.10;;
21192;SDS011;10754;51.106;7.164;2023-02-28T06:55:37;2.30;;;1.97;;
21192;SDS011;10754;51.106;7.164;2023-02-28T06:58:03;2.13;;;1.90;;
21192;SDS011;10754;51.106;7.164;2023-02-28T07:00:39;2.17;;;1.77;;
21192;SDS011;10754;51.106;7.164;2023-02-28T07:03:08;2.33;;;1.77;;
21192;SDS011;10754;51.106;7.164;2023-02-28T07:05:35;2.10;;;1.90;;
21192;SDS011;10754;51.106;7.164;2023-02-28T07:08:01;2.83;;;2.30;;
21192;SDS011;10754;51.106;7.164;2023-02-28T07:10:28;2.17;;;1.93;;
21192;SDS011;10754;51.106;7.164;2023-02-28T07:12:53;2.73;;;2.03;;
21192;SDS011;10754;51.106;7.164;2023-02-28T07:15:19;2.77;;;1.77;;
21192;SDS011;10754;51.106;7.164;2023-02-28T07:17:44;1.90;;;1.80;;
21192;SDS011;10754;51.106;7.164;2023-02-28T07:20:10;1.70;;;1.60;;
21192;SDS011;10754;51.106;7.164;2023-02-28T07:22:36;1.60;;;1.50;;
21192;SDS011;10754;51.106;7.164;2023-02-28T07:25:01;1.30;;;1.20;;
21192;SDS011;10754;51.106;7.164;2023-02-28T07:27:27;1.70;;;1.37;;
21192;SDS011;10754;51.106;7.164;2023-02-28T07:29:52;1.50;;;1.40;;
21192;SDS011;10754;51.106;7.164;2023-02-28T07:32:19;2.20;;;1.53;;
21192;SDS011;10754;51.106;7.164;2023-02-28T07:34:45;1.70;;;1.60;;
21192;SDS011;10754;51.106;7.164;2023-02-28T07:37:11;1.80;;;1.40;;
21192;SDS011;10754;51.106;7.164;2023-02-28T07:39:36;6.10;;;2.27;;
21192;SDS011;10754;51.106;7.164;2023-02-28T07:42:05;1.83;;;1.50;;
21192;SDS011;10754;51.106;7.164;2023-02-28T07:44:31;1.80;;;1.50;;
21192;SDS011;10754;51.106;7.164;2023-02-28T07:46:57;1.93;;;1.43;;
21192;SDS011;10754;51.106;7.164;2023-02-28T07:49:23;1.87;;;1.43;;
21192;SDS011;10754;51.106;7.164;2023-02-28T07:51:48;1.50;;;1.40;;
21192;SDS011;10754;51.106;7.164;2023-02-28T07:54:14;1.43;;;1.30;;
21192;SDS011;10754;51.106;7.164;2023-02-28T07:56:39;1.47;;;1.30;;
21192;SDS011;10754;51.106;7.164;2023-02-28T07:59:05;1.90;;;1.70;;
21192;SDS011;10754;51.106;7.164;2023-02-28T08:01:30;1.50;;;1.33;;
21192;SDS011;10754;51.106;7.164;2023-02-28T08:03:56;1.60;;;1.27;;
21192;SDS011;10754;51.106;7.164;2023-02-28T08:06:22;3.40;;;2.57;;
21192;SDS011;10754;51.106;7.164;2023-02-28T08:08:49;2.20;;;2.00;;
21192;SDS011;10754;51.106;7.164;2023-02-28T08:11:16;1.53;;;1.40;;
21192;SDS011;10754;51.106;7.164;2023-02-28T08:13:42;2.87;;;1.90;;
21192;SDS011;10754;51.106;7.164;2023-02-28T08:16:09;2.10;;;1.57;;
21192;SDS011;10754;51.106;7.164;2023-02-28T08:18:35;1.70;;;1.50;;
21192;SDS011;10754;51.106;7.164;2023-02-28T08:21:08;2.50;;;1.80;;
21192;SDS011;10754;51.106;7.164;2023-02-28T08:23:35;1.90;;;1.23;;
21192;SDS011;10754;51.106;7.164;2023-02-28T08:26:01;1.30;;;1.20;;
21192;SDS011;10754;51.106;7.164;2023-02-28T08:28:27;1.57;;;1.20;;
21192;SDS011;10754;51.106;7.164;2023-02-28T08:30:52;1.33;;;1.00;;
21192;SDS011;10754;51.106;7.164;2023-02-28T08:33:18;2.63;;;1.63;;
21192;SDS011;10754;51.106;7.164;2023-02-28T08:35:44;1.87;;;1.07;;
21192;SDS011;10754;51.106;7.164;2023-02-28T08:38:09;1.03;;;1.00;;
21192;SDS011;10754;51.106;7.164;2023-02-28T08:40:35;2.30;;;1.20;;
21192;SDS011;10754;51.106;7.164;2023-02-28T08:43:00;1.53;;;1.20;;
21192;SDS011;10754;51.106;7.164;2023-02-28T08:45:26;1.93;;;1.10;;
21192;SDS011;10754;51.106;7.164;2023-02-28T08:47:51;2.70;;;1.47;;
21192;SDS011;10754;51.106;7.164;2023-02-28T08:50:18;1.30;;;1.20;;
21192;SDS011;10754;51.106;7.164;2023-02-28T08:52:44;1.10;;;0.90;;
21192;SDS011;10754;51.106;7.164;2023-02-28T08:55:09;1.83;;;1.00;;
21192;SDS011;10754;51.106;7.164;2023-02-28T08:57:35;1.27;;;1.07;;
21192;SDS011;10754;51.106;7.164;2023-02-28T09:00:01;1.20;;;1.10;;
21192;SDS011;10754;51.106;7.164;2023-02-28T09:02:29;2.17;;;1.10;;
21192;SDS011;10754;51.106;7.164;2023-02-28T09:04:56;1.37;;;1.20;;
21192;SDS011;10754;51.106;7.164;2023-02-28T09:07:22;1.77;;;1.20;;
21192;SDS011;10754;51.106;7.164;2023-02-28T09:09:48;2.30;;;2.10;;
21192;SDS011;10754;51.106;7.164;2023-02-28T09:12:21;1.10;;;1.00;;
21192;SDS011;10754;51.106;7.164;2023-02-28T09:14:47;1.10;;;1.00;;
21192;SDS011;10754;51.106;7.164;2023-02-28T09:17:13;1.70;;;1.20;;
21192;SDS011;10754;51.106;7.164;2023-02-28T09:19:38;1.10;;;0.87;;
21192;SDS011;10754;51.106;7.164;2023-02-28T09:22:04;1.53;;;0.87;;
21192;SDS011;10754;51.106;7.164;2023-02-28T09:24:29;0.97;;;0.90;;
21192;SDS011;10754;51.106;7.164;2023-02-28T09:26:56;1.57;;;1.00;;
21192;SDS011;10754;51.106;7.164;2023-02-28T09:29:22;1.63;;;1.30;;
21192;SDS011;10754;51.106;7.164;2023-02-28T09:31:47;1.57;;;1.20;;
21192;SDS011;10754;51.106;7.164;2023-02-28T09:34:13;1.23;;;1.13;;
21192;SDS011;10754;51.106;7.164;2023-02-28T09:36:39;1.63;;;1.20;;
21192;SDS011;10754;51.106;7.164;2023-02-28T09:39:05;1.93;;;1.30;;
21192;SDS011;10754;51.106;7.164;2023-02-28T09:41:36;2.53;;;1.20;;
21192;SDS011;10754;51.106;7.164;2023-02-28T09:44:05;1.30;;;1.10;;
21192;SDS011;10754;51.106;7.164;2023-02-28T09:49:06;1.50;;;1.37;;
21192;SDS011;10754;51.106;7.164;2023-02-28T09:51:44;1.53;;;1.10;;
21192;SDS011;10754;51.106;7.164;2023-02-28T09:54:28;1.73;;;1.20;;
21192;SDS011;10754;51.106;7.164;2023-02-28T09:56:57;1.37;;;1.27;;
21192;SDS011;10754;51.106;7.164;2023-02-28T09:59:51;1.40;;;1.10;;
21192;SDS011;10754;51.106;7.164;2023-02-28T10:02:41;1.87;;;1.30;;
21192;SDS011;10754;51.106;7.164;2023-02-28T10:05:12;1.50;;;1.00;;
21192;SDS011;10754;51.106;7.164;2023-02-28T10:10:57;1.10;;;1.00;;
21192;SDS011;10754;51.106;7.164;2023-02-28T10:13:02;1.30;;;1.13;;
21192;SDS011;10754;51.106;7.164;2023-02-28T10:15:31;1.67;;;1.47;;
21192;SDS011;10754;51.106;7.164;2023-02-28T10:18:00;1.73;;;0.80;;
21192;SDS011;10754;51.106;7.164;2023-02-28T10:20:35;0.80;;;0.80;;
21192;SDS011;10754;51.106;7.164;2023-02-28T10:23:17;1.27;;;1.13;;
21192;SDS011;10754;51.106;7.164;2023-02-28T10:26:03;2.10;;;1.23;;
21192;SDS011;10754;51.106;7.164;2023-02-28T10:28:36;1.07;;;0.97;;
21192;SDS011;10754;51.106;7.164;2023-02-28T10:31:02;1.17;;;1.07;;
21192;SDS011;10754;51.106;7.164;2023-02-28T10:36:02;1.17;;;1.07;;
21192;SDS011;10754;51.106;7.164;2023-02-28T10:38:32;1.47;;;1.30;;
21192;SDS011;10754;51.106;7.164;2023-02-28T10:41:03;1.87;;;1.27;;
21192;SDS011;10754;51.106;7.164;2023-02-28T10:43:31;1.80;;;1.30;;
21192;SDS011;10754;51.106;7.164;2023-02-28T10:45:58;1.33;;;1.03;;
21192;SDS011;10754;51.106;7.164;2023-02-28T10:48:30;1.10;;;1.00;;
21192;SDS011;10754;51.106;7.164;2023-02-28T10:50:59;1.43;;;1.30;;
21192;SDS011;10754;51.106;7.164;2023-02-28T10:54:10;2.50;;;1.27;;
21192;SDS011;10754;51.106;7.164;2023-02-28T10:58:54;1.40;;;1.30;;
21192;SDS011;10754;51.106;7.164;2023-02-28T11:01:21;1.27;;;1.17;;
21192;SDS011;10754;51.106;7.164;2023-02-28T11:03:50;1.30;;;1.20;;
21192;SDS011;10754;51.106;7.164;2023-02-28T11:06:23;1.30;;;1.10;;
21192;SDS011;10754;51.106;7.164;2023-02-28T11:08:58;1.20;;;1.10;;
21192;SDS011;10754;51.106;7.164;2023-02-28T11:11:43;4.20;;;1.80;;
21192;SDS011;10754;51.106;7.164;2023-02-28T11:14:20;2.60;;;1.40;;
21192;SDS011;10754;51.106;7.164;2023-02-28T11:16:49;2.37;;;1.20;;
21192;SDS011;10754;51.106;7.164;2023-02-28T11:19:20;4.77;;;1.80;;
21192;SDS011;10754;51.106;7.164;2023-02-28T11:21:59;1.47;;;1.33;;
21192;SDS011;10754;51.106;7.164;2023-02-28T11:24:33;5.10;;;2.17;;
21192;SDS011;10754;51.106;7.164;2023-02-28T11:27:05;1.93;;;1.33;;
21192;SDS011;10754;51.106;7.164;2023-02-28T11:29:31;3.53;;;1.27;;
21192;SDS011;10754;51.106;7.164;2023-02-28T11:32:18;1.93;;;1.67;;
21192;SDS011;10754;51.106;7.164;2023-02-28T11:34:46;1.83;;;1.30;;
21192;SDS011;10754;51.106;7.164;2023-02-28T11:37:25;1.40;;;1.00;;
21192;SDS011;10754;51.106;7.164;2023-02-28T11:39:52;1.47;;;1.20;;
21192;SDS011;10754;51.106;7.164;2023-02-28T11:42:39;3.25;;;1.20;;
21192;SDS011;10754;51.106;7.164;2023-02-28T11:48:43;1.00;;;0.90;;
21192;SDS011;10754;51.106;7.164;2023-02-28T11:51:20;2.30;;;1.20;;
21192;SDS011;10754;51.106;7.164;2023-02-28T11:54:00;1.67;;;1.27;;
21192;SDS011;10754;51.106;7.164;2023-02-28T12:04:24;2.25;;;1.10;;
21192;SDS011;10754;51.106;7.164;2023-02-28T12:07:09;1.65;;;1.40;;
21192;SDS011;10754;51.106;7.164;2023-02-28T12:20:17;1.45;;;1.27;;
21192;SDS011;10754;51.106;7.164;2023-02-28T12:28:23;1.40;;;1.08;;
21192;SDS011;10754;51.106;7.164;2023-02-28T12:31:38;2.33;;;1.10;;
21192;SDS011;10754;51.106;7.164;2023-02-28T12:33:50;1.13;;;0.90;;
21192;SDS011;10754;51.106;7.164;2023-02-28T12:36:19;1.42;;;1.02;;
21192;SDS011;10754;51.106;7.164;2023-02-28T12:39:04;1.65;;;1.02;;
21192;SDS011;10754;51.106;7.164;2023-02-28T12:41:39;1.58;;;1.20;;
21192;SDS011;10754;51.106;7.164;2023-02-28T12:44:09;1.10;;;1.00;;
21192;SDS011;10754;51.106;7.164;2023-02-28T12:46:44;1.90;;;1.58;;
21192;SDS011;10754;51.106;7.164;2023-02-28T12:49:27;1.42;;;1.20;;
21192;SDS011;10754;51.106;7.164;2023-02-28T12:52:06;1.35;;;1.23;;
21192;SDS011;10754;51.106;7.164;2023-02-28T12:54:38;2.15;;;1.27;;
21192;SDS011;10754;51.106;7.164;2023-02-28T12:57:32;1.27;;;0.90;;
21192;SDS011;10754;51.106;7.164;2023-02-28T13:05:54;2.45;;;0.90;;
21192;SDS011;10754;51.106;7.164;2023-02-28T13:09:03;1.33;;;1.10;;
21192;SDS011;10754;51.106;7.164;2023-02-28T13:11:44;1.55;;;1.15;;
21192;SDS011;10754;51.106;7.164;2023-02-28T13:14:35;1.75;;;1.30;;
21192;SDS011;10754;51.106;7.164;2023-02-28T13:19:37;2.80;;;1.15;;
21192;SDS011;10754;51.106;7.164;2023-02-28T13:22:19;2.03;;;1.13;;
21192;SDS011;10754;51.106;7.164;2023-02-28T13:27:59;1.20;;;0.90;;
21192;SDS011;10754;51.106;7.164;2023-02-28T13:38:37;1.10;;;1.00;;
21192;SDS011;10754;51.106;7.164;2023-02-28T13:43:59;1.75;;;1.40;;
21192;SDS011;10754;51.106;7.164;2023-02-28T13:46:36;1.23;;;1.13;;
21192;SDS011;10754;51.106;7.164;2023-02-28T14:05:17;1.50;;;1.40;;
21192;SDS011;10754;51.106;7.164;2023-02-28T14:07:50;1.30;;;1.20;;
21192;SDS011;10754;51.106;7.164;2023-02-28T14:10:23;3.08;;;1.33;;
21192;SDS011;10754;51.106;7.164;2023-02-28T14:12:51;1.48;;;1.20;;
21192;SDS011;10754;51.106;7.164;2023-02-28T14:17:56;1.58;;;1.30;;
21192;SDS011;10754;51.106;7.164;2023-02-28T14:20:25;1.50;;;1.40;;
21192;SDS011;10754;51.106;7.164;2023-02-28T14:25:51;1.70;;;1.50;;
21192;SDS011;10754;51.106;7.164;2023-02-28T14:31:36;1.48;;;1.30;;
21192;SDS011;10754;51.106;7.164;2023-02-28T14:36:50;1.73;;;1.60;;
21192;SDS011;10754;51.106;7.164;2023-02-28T14:39:22;1.45;;;1.27;;
21192;SDS011;10754;51.106;7.164;2023-02-28T14:41:50;1.70;;;1.60;;
21192;SDS011;10754;51.106;7.164;2023-02-28T14:46:53;3.28;;;1.60;;
21192;SDS011;10754;51.106;7.164;2023-02-28T14:49:31;2.40;;;1.88;;
21192;SDS011;10754;51.106;7.164;2023-02-28T14:52:05;2.47;;;1.67;;
21192;SDS011;10754;51.106;7.164;2023-02-28T14:54:42;1.80;;;1.10;;
21192;SDS011;10754;51.106;7.164;2023-02-28T14:57:26;1.75;;;1.52;;
21192;SDS011;10754;51.106;7.164;2023-02-28T15:00:04;1.83;;;1.30;;
21192;SDS011;10754;51.106;7.164;2023-02-28T15:02:39;2.30;;;1.85;;
21192;SDS011;10754;51.106;7.164;2023-02-28T15:07:42;2.10;;;1.30;;
21192;SDS011;10754;51.106;7.164;2023-02-28T15:10:18;1.38;;;1.27;;
21192;SDS011;10754;51.106;7.164;2023-02-28T15:15:25;2.53;;;1.48;;
21192;SDS011;10754;51.106;7.164;2023-02-28T15:18:13;1.67;;;1.50;;
21192;SDS011;10754;51.106;7.164;2023-02-28T15:20:45;1.47;;;1.37;;
21192;SDS011;10754;51.106;7.164;2023-02-28T15:23:11;1.77;;;1.50;;
21192;SDS011;10754;51.106;7.164;2023-02-28T15:25:37;5.23;;;1.93;;
21192;SDS011;10754;51.106;7.164;2023-02-28T15:28:09;2.10;;;1.90;;
21192;SDS011;10754;51.106;7.164;2023-02-28T15:30:49;2.30;;;1.80;;
21192;SDS011;10754;51.106;7.164;2023-02-28T15:35:42;1.53;;;1.20;;
21192;SDS011;10754;51.106;7.164;2023-02-28T15:38:16;1.60;;;1.50;;
21192;SDS011;10754;51.106;7.164;2023-02-28T15:40:56;2.30;;;1.70;;
21192;SDS011;10754;51.106;7.164;2023-02-28T15:43:24;2.03;;;1.83;;
21192;SDS011;10754;51.106;7.164;2023-02-28T15:48:30;2.20;;;2.00;;
21192;SDS011;10754;51.106;7.164;2023-02-28T15:51:06;2.72;;;1.50;;
21192;SDS011;10754;51.106;7.164;2023-02-28T15:53:38;1.67;;;1.40;;
21192;SDS011;10754;51.106;7.164;2023-02-28T15:56:18;1.97;;;1.50;;
21192;SDS011;10754;51.106;7.164;2023-02-28T15:59:14;1.40;;;1.30;;
21192;SDS011;10754;51.106;7.164;2023-02-28T16:01:41;1.97;;;1.47;;
21192;SDS011;10754;51.106;7.164;2023-02-28T16:07:00;3.63;;;1.70;;
21192;SDS011;10754;51.106;7.164;2023-02-28T16:09:28;1.60;;;1.50;;
21192;SDS011;10754;51.106;7.164;2023-02-28T16:11:56;1.97;;;1.40;;
21192;SDS011;10754;51.106;7.164;2023-02-28T16:14:26;1.70;;;1.50;;
21192;SDS011;10754;51.106;7.164;2023-02-28T16:16:55;2.37;;;2.17;;
21192;SDS011;10754;51.106;7.164;2023-02-28T16:19:26;3.07;;;1.93;;
21192;SDS011;10754;51.106;7.164;2023-02-28T16:21:52;3.20;;;1.90;;
21192;SDS011;10754;51.106;7.164;2023-02-28T16:24:18;1.73;;;1.47;;
21192;SDS011;10754;51.106;7.164;2023-02-28T16:26:45;2.70;;;1.60;;
21192;SDS011;10754;51.106;7.164;2023-02-28T16:29:19;2.07;;;1.83;;
21192;SDS011;10754;51.106;7.164;2023-02-28T16:31:49;1.80;;;1.70;;
21192;SDS011;10754;51.106;7.164;2023-02-28T16:34:15;1.57;;;1.40;;
21192;SDS011;10754;51.106;7.164;2023-02-28T16:36:40;1.47;;;1.30;;
21192;SDS011;10754;51.106;7.164;2023-02-28T16:39:06;1.37;;;1.20;;
21192;SDS011;10754;51.106;7.164;2023-02-28T16:41:31;1.90;;;1.33;;
21192;SDS011;10754;51.106;7.164;2023-02-28T16:43:59;3.10;;;2.50;;
21192;SDS011;10754;51.106;7.164;2023-02-28T16:46:33;5.20;;;2.60;;
21192;SDS011;10754;51.106;7.164;2023-02-28T16:48:59;2.30;;;1.97;;
21192;SDS011;10754;51.106;7.164;2023-02-28T16:51:25;2.00;;;1.80;;
21192;SDS011;10754;51.106;7.164;2023-02-28T16:53:51;1.70;;;1.60;;
21192;SDS011;10754;51.106;7.164;2023-02-28T16:56:18;1.90;;;1.70;;
21192;SDS011;10754;51.106;7.164;2023-02-28T16:58:45;2.33;;;1.90;;
21192;SDS011;10754;51.106;7.164;2023-02-28T17:01:12;2.83;;;2.30;;
21192;SDS011;10754;51.106;7.164;2023-02-28T17:03:38;2.53;;;1.83;;
21192;SDS011;10754;51.106;7.164;2023-02-28T17:06:05;3.33;;;1.77;;
21192;SDS011;10754;51.106;7.164;2023-02-28T17:08:37;2.93;;;2.00;;
21192;SDS011;10754;51.106;7.164;2023-02-28T17:11:03;2.47;;;2.07;;
21192;SDS011;10754;51.106;7.164;2023-02-28T17:13:29;3.17;;;2.10;;
21192;SDS011;10754;51.106;7.164;2023-02-28T17:15:54;4.60;;;2.63;;
21192;SDS011;10754;51.106;7.164;2023-02-28T17:18:20;2.30;;;2.10;;
21192;SDS011;10754;51.106;7.164;2023-02-28T17:20:46;2.77;;;2.30;;